createdAt,value
2018-03-08T00:00:41.145Z,78.03
2018-03-08T00:03:08.633Z,78.00
2018-03-08T00:05:36.060Z,77.90
2018-03-08T00:08:03.536Z,77.79
2018-03-08T00:10:30.989Z,77.74
2018-03-08T00:12:58.529Z,77.55
2018-03-08T00:15:26.005Z,77.39
2018-03-08T00:17:53.439Z,77.44
2018-03-08T00:20:20.904Z,77.30
2018-03-08T00:22:48.360Z,77.02
2018-03-08T00:25:15.806Z,77.05
2018-03-08T00:27:43.271Z,77.09
2018-03-08T00:30:10.779Z,77.23
2018-03-08T00:32:38.266Z,77.08
2018-03-08T00:35:05.706Z,77.07
2018-03-08T00:37:33.163Z,77.07
2018-03-08T00:40:00.598Z,77.00
2018-03-08T00:42:28.034Z,76.95
2018-03-08T00:44:55.527Z,76.89
2018-03-08T00:47:22.941Z,77.01
2018-03-08T00:49:50.399Z,77.03
2018-03-08T00:52:17.836Z,76.89
2018-03-08T00:54:45.280Z,77.00
2018-03-08T00:57:12.713Z,77.02
2018-03-08T00:59:40.241Z,76.94
2018-03-08T01:02:07.669Z,76.95
2018-03-08T01:04:35.099Z,76.93
2018-03-08T01:07:02.548Z,76.84
2018-03-08T01:09:29.996Z,76.81
2018-03-08T01:11:57.458Z,76.67
2018-03-08T01:14:24.927Z,76.70
2018-03-08T01:16:52.397Z,76.73
2018-03-08T01:19:19.840Z,76.53
2018-03-08T01:21:47.277Z,76.59
2018-03-08T01:24:14.733Z,76.40
2018-03-08T01:26:42.173Z,76.43
2018-03-08T01:29:09.620Z,76.55
2018-03-08T01:31:37.042Z,76.37
2018-03-08T01:34:04.481Z,76.19
2018-03-08T01:36:31.927Z,76.29
2018-03-08T01:38:59.375Z,76.40
2018-03-08T01:41:26.871Z,76.42
2018-03-08T01:43:54.335Z,76.33
2018-03-08T01:46:21.815Z,76.48
2018-03-08T01:48:49.281Z,76.67
2018-03-08T01:51:16.803Z,76.72
2018-03-08T01:53:44.245Z,76.82
2018-03-08T01:56:11.697Z,76.90
2018-03-08T01:58:39.181Z,76.82
2018-03-08T02:01:06.621Z,76.98
2018-03-08T02:03:34.055Z,76.98
2018-03-08T02:06:01.559Z,77.06
2018-03-08T02:08:29.025Z,77.13
2018-03-08T02:10:56.466Z,77.12
2018-03-08T02:13:23.946Z,77.23
2018-03-08T02:15:52.315Z,77.46
2018-03-08T02:18:19.798Z,77.45
2018-03-08T02:20:47.291Z,77.47
2018-03-08T02:23:14.732Z,77.42
2018-03-08T02:25:42.177Z,77.30
2018-03-08T02:28:09.650Z,77.12
2018-03-08T02:30:37.112Z,77.10
2018-03-08T02:33:05.237Z,77.13
2018-03-08T02:35:32.706Z,77.22
2018-03-08T02:38:01.934Z,77.21
2018-03-08T02:40:29.388Z,77.33
2018-03-08T02:42:56.843Z,77.42
2018-03-08T02:45:24.303Z,77.51
2018-03-08T02:47:51.772Z,77.41
2018-03-08T02:50:19.280Z,77.52
2018-03-08T02:52:46.763Z,77.37
2018-03-08T02:55:14.258Z,77.44
2018-03-08T02:57:41.723Z,77.63
2018-03-08T03:00:09.189Z,77.60
2018-03-08T03:02:36.684Z,77.86
2018-03-08T03:05:04.126Z,77.96
2018-03-08T03:07:31.601Z,78.00
2018-03-08T03:10:11.689Z,78.36
2018-03-08T03:12:39.118Z,78.54
2018-03-08T03:15:06.554Z,78.76
2018-03-08T03:17:33.990Z,78.88
2018-03-08T03:20:01.453Z,79.07
2018-03-08T03:22:28.907Z,79.18
2018-03-08T03:24:57.275Z,79.33
2018-03-08T03:27:24.722Z,79.29
2018-03-08T03:29:52.201Z,79.14
2018-03-08T03:32:19.643Z,79.37
2018-03-08T03:34:47.093Z,79.19
2018-03-08T03:37:14.525Z,79.31
2018-03-08T03:39:42.009Z,79.20
2018-03-08T03:42:09.470Z,79.25
2018-03-08T03:44:36.938Z,79.15
2018-03-08T03:47:04.402Z,79.08
2018-03-08T03:49:32.151Z,79.00
2018-03-08T03:51:59.586Z,78.68
2018-03-08T03:54:27.039Z,78.56
2018-03-08T03:56:54.489Z,78.44
2018-03-08T03:59:21.931Z,78.25
2018-03-08T04:01:49.414Z,77.96
2018-03-08T04:04:16.907Z,78.12
2018-03-08T04:06:44.346Z,77.85
2018-03-08T04:09:11.786Z,77.76
2018-03-08T04:11:39.225Z,77.73
2018-03-08T04:14:06.693Z,77.72
2018-03-08T04:16:34.122Z,77.55
2018-03-08T04:19:01.564Z,77.47
2018-03-08T04:21:29.108Z,77.44
2018-03-08T04:23:56.563Z,77.28
2018-03-08T04:26:24.023Z,77.25
2018-03-08T04:28:51.484Z,77.04
2018-03-08T04:31:18.906Z,76.88
2018-03-08T04:33:46.387Z,76.92
2018-03-08T04:36:13.923Z,76.90
2018-03-08T04:38:41.402Z,76.84
2018-03-08T04:41:08.942Z,76.67
2018-03-08T04:43:36.404Z,76.51
2018-03-08T04:46:04.438Z,76.51
2018-03-08T04:48:31.910Z,76.26
2018-03-08T04:51:00.220Z,76.24
2018-03-08T04:53:27.640Z,76.16
2018-03-08T04:55:55.072Z,76.12
2018-03-08T04:58:22.516Z,76.10
2018-03-08T05:00:49.951Z,76.09
2018-03-08T05:03:17.387Z,75.79
2018-03-08T05:05:44.878Z,75.75
2018-03-08T05:08:12.304Z,75.77
2018-03-08T05:10:39.753Z,75.61
2018-03-08T05:13:07.213Z,75.58
2018-03-08T05:15:34.660Z,75.38
2018-03-08T05:18:02.140Z,75.45
2018-03-08T05:20:29.578Z,75.16
2018-03-08T05:22:57.027Z,75.47
2018-03-08T05:25:24.506Z,75.56
2018-03-08T05:27:51.958Z,75.66
2018-03-08T05:30:19.428Z,75.78
2018-03-08T05:32:46.862Z,75.99
2018-03-08T05:35:14.395Z,76.10
2018-03-08T05:37:41.852Z,76.16
2018-03-08T05:40:09.304Z,76.17
2018-03-08T05:42:36.802Z,76.42
2018-03-08T05:45:05.217Z,76.35
2018-03-08T05:47:32.646Z,76.56
2018-03-08T05:50:00.102Z,76.69
2018-03-08T05:52:27.568Z,77.01
2018-03-08T05:54:55.012Z,76.96
2018-03-08T05:57:22.480Z,77.14
2018-03-08T05:59:49.936Z,77.23
2018-03-08T06:02:17.396Z,77.53
2018-03-08T06:04:44.868Z,77.51
2018-03-08T06:07:12.310Z,77.61
2018-03-08T06:09:39.791Z,77.68
2018-03-08T06:12:07.313Z,77.72
2018-03-08T06:14:34.805Z,77.71
2018-03-08T06:17:02.289Z,77.69
2018-03-08T06:19:29.784Z,77.88
2018-03-08T06:21:57.226Z,77.68
2018-03-08T06:24:24.701Z,77.78
2018-03-08T06:26:52.186Z,77.82
2018-03-08T06:29:19.664Z,77.75
2018-03-08T06:31:47.134Z,77.80
2018-03-08T06:34:14.668Z,77.95
2018-03-08T06:36:42.157Z,78.21
2018-03-08T06:39:09.742Z,78.16
2018-03-08T06:41:37.206Z,78.03
2018-03-08T06:44:04.738Z,77.88
2018-03-08T06:46:32.181Z,78.06
2018-03-08T06:49:04.584Z,78.19
2018-03-08T06:51:32.118Z,78.25
2018-03-08T06:53:59.692Z,78.02
2018-03-08T06:56:27.166Z,77.70
2018-03-08T06:58:54.622Z,77.67
2018-03-08T07:01:22.284Z,77.81
2018-03-08T07:03:49.744Z,77.75
2018-03-08T07:06:17.222Z,77.67
2018-03-08T07:08:44.714Z,77.38
2018-03-08T07:11:12.262Z,77.24
2018-03-08T07:13:39.734Z,77.14
2018-03-08T07:16:07.244Z,76.83
2018-03-08T07:18:34.688Z,76.87
2018-03-08T07:21:02.178Z,76.99
2018-03-08T07:23:29.678Z,76.36
2018-03-08T07:25:57.108Z,75.99
2018-03-08T07:28:24.584Z,75.62
2018-03-08T07:30:52.038Z,75.22
2018-03-08T07:33:19.482Z,75.21
2018-03-08T07:35:47.004Z,74.75
2018-03-08T07:38:14.508Z,74.31
2018-03-08T07:40:42.025Z,74.46
2018-03-08T07:43:09.680Z,73.76
2018-03-08T07:45:37.234Z,73.06
2018-03-08T07:48:04.694Z,72.61
2018-03-08T07:50:32.172Z,72.43
2018-03-08T07:52:59.636Z,72.04
2018-03-08T07:55:27.128Z,71.59
2018-03-08T07:57:54.582Z,70.63
2018-03-08T08:00:22.076Z,70.26
2018-03-08T08:02:49.535Z,69.61
2018-03-08T08:05:28.686Z,69.33
2018-03-08T08:08:07.946Z,69.03
2018-03-08T08:10:35.622Z,68.78
2018-03-08T08:13:03.081Z,68.66
2018-03-08T08:15:32.716Z,68.70
2018-03-08T08:18:00.284Z,68.01
2018-03-08T08:20:27.762Z,68.03
2018-03-08T08:22:55.306Z,67.29
2018-03-08T08:25:22.778Z,67.43
2018-03-08T08:27:50.303Z,67.38
2018-03-08T08:30:17.826Z,67.29
2018-03-08T08:32:45.328Z,66.90
2018-03-08T08:35:12.796Z,66.83
2018-03-08T08:37:40.254Z,66.37
2018-03-08T08:40:07.718Z,66.23
2018-03-08T08:42:35.267Z,65.28
2018-03-08T08:45:02.726Z,65.22
2018-03-08T08:47:30.185Z,64.83
2018-03-08T08:49:57.654Z,63.87
2018-03-08T08:52:25.214Z,64.02
2018-03-08T08:54:52.676Z,63.86
2018-03-08T08:57:20.257Z,63.82
2018-03-08T08:59:47.704Z,63.26
2018-03-08T09:02:15.125Z,62.34
2018-03-08T09:04:42.594Z,62.14
2018-03-08T09:07:10.043Z,60.83
2018-03-08T09:09:37.478Z,60.32
2018-03-08T09:12:04.936Z,59.57
2018-03-08T09:14:32.470Z,59.13
2018-03-08T09:16:59.925Z,57.91
2018-03-08T09:19:27.397Z,56.87
2018-03-08T09:21:54.901Z,55.73
2018-03-08T09:24:22.374Z,55.55
2018-03-08T09:26:49.825Z,56.49
2018-03-08T09:29:17.298Z,55.68
2018-03-08T09:31:44.782Z,55.13
2018-03-08T09:34:12.348Z,51.33
2018-03-08T09:36:39.812Z,49.94
2018-03-08T09:39:07.398Z,48.22
2018-03-08T09:41:34.866Z,44.78
2018-03-08T09:44:02.335Z,43.34
2018-03-08T09:46:29.855Z,40.85
2018-03-08T09:48:57.326Z,39.83
2018-03-08T09:51:24.898Z,38.56
2018-03-08T09:53:52.368Z,35.75
2018-03-08T09:56:19.990Z,34.34
2018-03-08T09:58:47.462Z,33.92
2018-03-08T10:01:14.946Z,32.30
2018-03-08T10:03:42.394Z,32.16
2018-03-08T10:06:09.985Z,30.18
2018-03-08T10:08:37.412Z,29.66
2018-03-08T10:11:04.882Z,29.37
2018-03-08T10:13:32.430Z,29.10
2018-03-08T10:15:59.896Z,28.75
2018-03-08T10:18:27.345Z,28.93
2018-03-08T10:20:54.840Z,28.21
2018-03-08T10:23:22.433Z,28.47
2018-03-08T10:25:49.903Z,28.56
2018-03-08T10:28:17.391Z,28.50
2018-03-08T10:30:44.873Z,27.92
2018-03-08T10:33:12.331Z,28.28
2018-03-08T10:35:39.867Z,28.25
2018-03-08T10:38:07.348Z,27.53
2018-03-08T10:43:02.328Z,28.60
2018-03-08T10:45:29.973Z,29.58
2018-03-08T10:47:57.483Z,31.77
2018-03-08T10:50:25.042Z,32.62
2018-03-08T10:52:52.445Z,33.61
2018-03-08T10:55:19.936Z,33.79
2018-03-08T10:57:47.383Z,34.06
2018-03-08T11:00:14.867Z,35.15
2018-03-08T11:02:47.833Z,36.25
2018-03-08T11:05:15.374Z,37.00
2018-03-08T11:07:42.903Z,37.91
2018-03-08T11:10:10.391Z,38.82
2018-03-08T11:12:37.897Z,39.70
2018-03-08T11:15:05.391Z,40.05
2018-03-08T11:17:32.922Z,41.16
2018-03-08T11:20:02.055Z,40.96
2018-03-08T11:22:29.905Z,41.13
2018-03-08T11:24:57.341Z,41.45
2018-03-08T11:27:24.858Z,42.17
2018-03-08T11:29:52.419Z,42.90
2018-03-08T11:32:19.989Z,42.78
2018-03-08T11:34:47.471Z,42.10
2018-03-08T11:37:14.991Z,41.77
2018-03-08T11:39:42.535Z,41.53
2018-03-08T11:42:10.369Z,42.12
2018-03-08T11:44:37.897Z,43.24
2018-03-08T11:47:05.391Z,42.79
2018-03-08T11:49:32.851Z,41.87
2018-03-08T11:52:00.345Z,41.19
2018-03-08T11:54:27.952Z,41.30
2018-03-08T11:56:55.429Z,40.03
2018-03-08T11:59:22.947Z,40.45
2018-03-08T12:01:50.527Z,39.48
2018-03-08T12:04:17.986Z,38.29
2018-03-08T12:06:45.502Z,37.16
2018-03-08T12:09:13.019Z,35.64
2018-03-08T12:11:41.407Z,34.62
2018-03-08T12:14:08.871Z,33.89
2018-03-08T12:16:36.335Z,33.46
2018-03-08T12:19:03.806Z,32.71
2018-03-08T12:21:31.270Z,31.43
2018-03-08T12:23:58.711Z,31.49
2018-03-08T12:26:26.155Z,31.60
2018-03-08T12:28:53.619Z,31.53
2018-03-08T12:31:21.144Z,31.36
2018-03-08T12:33:48.580Z,30.04
2018-03-08T12:36:16.025Z,29.80
2018-03-08T12:38:43.480Z,29.17
2018-03-08T12:41:11.009Z,29.65
2018-03-08T12:43:38.491Z,28.97
2018-03-08T12:46:05.968Z,28.38
2018-03-08T12:48:33.434Z,30.12
2018-03-08T12:51:00.906Z,32.80
2018-03-08T12:53:28.393Z,34.81
2018-03-08T12:55:55.875Z,35.86
2018-03-08T12:58:23.345Z,34.17
2018-03-08T13:00:50.809Z,32.83
2018-03-08T13:03:18.248Z,31.94
2018-03-08T13:05:45.733Z,31.88
2018-03-08T13:08:13.190Z,33.54
2018-03-08T13:10:40.637Z,34.88
2018-03-08T13:13:08.094Z,36.77
2018-03-08T13:15:35.647Z,38.61
2018-03-08T13:18:03.100Z,39.92
2018-03-08T13:20:30.772Z,40.66
2018-03-08T13:22:58.270Z,42.53
2018-03-08T13:25:25.747Z,43.15
2018-03-08T13:27:53.229Z,43.31
2018-03-08T13:30:20.698Z,41.70
2018-03-08T13:32:48.175Z,38.45
2018-03-08T13:35:15.654Z,36.70
2018-03-08T13:37:43.146Z,35.65
2018-03-08T13:40:10.585Z,36.37
2018-03-08T13:42:38.042Z,37.54
2018-03-08T13:45:05.542Z,39.28
2018-03-08T13:47:33.018Z,41.04
2018-03-08T13:50:00.510Z,42.62
2018-03-08T13:52:28.018Z,43.21
2018-03-08T13:54:55.501Z,43.32
2018-03-08T13:57:22.936Z,44.36
2018-03-08T13:59:55.423Z,44.54
2018-03-08T14:02:22.922Z,44.24
2018-03-08T14:04:50.360Z,43.35
2018-03-08T14:07:17.775Z,41.21
2018-03-08T14:09:45.360Z,39.80
2018-03-08T14:12:12.831Z,39.98
2018-03-08T14:14:40.316Z,39.54
2018-03-08T14:17:07.751Z,39.16
2018-03-08T14:19:35.230Z,38.18
2018-03-08T14:22:04.400Z,37.73
2018-03-08T14:24:31.884Z,36.88
2018-03-08T14:26:59.596Z,36.76
2018-03-08T14:29:27.042Z,38.29
2018-03-08T14:31:54.531Z,37.22
2018-03-08T14:34:22.025Z,37.93
2018-03-08T14:36:49.475Z,38.80
2018-03-08T14:39:16.960Z,39.53
2018-03-08T14:41:44.409Z,39.11
2018-03-08T14:44:12.009Z,39.12
2018-03-08T14:46:39.495Z,39.37
2018-03-08T14:49:06.969Z,40.47
2018-03-08T14:51:34.426Z,41.13
2018-03-08T14:54:01.914Z,41.50
2018-03-08T14:56:31.834Z,42.24
2018-03-08T14:58:59.318Z,42.63
2018-03-08T15:01:26.821Z,42.67
2018-03-08T15:03:54.261Z,42.40
2018-03-08T15:06:21.764Z,42.24
2018-03-08T15:08:49.163Z,42.06
2018-03-08T15:11:16.632Z,42.55
2018-03-08T15:13:44.066Z,42.75
2018-03-08T15:16:11.544Z,42.85
2018-03-08T15:18:39.023Z,42.93
2018-03-08T15:21:06.519Z,43.18
2018-03-08T15:23:33.972Z,43.62
2018-03-08T15:26:01.388Z,43.79
2018-03-08T15:28:28.859Z,44.08
2018-03-08T15:30:56.356Z,44.12
2018-03-08T15:33:23.865Z,44.61
2018-03-08T15:35:51.347Z,44.76
2018-03-08T15:38:18.771Z,44.90
2018-03-08T15:40:46.261Z,45.31
2018-03-08T15:43:13.725Z,45.27
2018-03-08T15:45:41.166Z,45.84
2018-03-08T15:48:08.688Z,45.57
2018-03-08T15:50:36.204Z,46.00
2018-03-08T15:53:03.687Z,45.95
2018-03-08T15:55:31.137Z,46.12
2018-03-08T15:57:58.600Z,46.41
2018-03-08T16:00:26.116Z,46.49
2018-03-08T16:02:53.634Z,46.43
2018-03-08T16:05:21.088Z,46.66
2018-03-08T16:10:56.278Z,46.62
2018-03-08T16:13:23.881Z,46.92
2018-03-08T16:15:51.412Z,46.93
2018-03-08T16:18:18.881Z,47.13
2018-03-08T16:20:46.308Z,47.26
2018-03-08T16:23:13.800Z,47.18
2018-03-08T16:25:41.276Z,47.19
2018-03-08T16:28:08.716Z,47.43
2018-03-08T16:30:36.155Z,47.53
2018-03-08T16:33:03.647Z,47.74
2018-03-08T16:35:31.122Z,47.90
2018-03-08T16:37:58.586Z,48.14
2018-03-08T16:40:26.828Z,48.63
2018-03-08T16:42:54.280Z,48.95
2018-03-08T16:45:21.744Z,49.31
2018-03-08T16:47:49.200Z,49.62
2018-03-08T16:50:16.700Z,49.68
2018-03-08T16:52:44.166Z,49.86
2018-03-08T16:55:11.706Z,50.13
2018-03-08T16:57:39.173Z,50.29
2018-03-08T17:00:06.760Z,51.32
2018-03-08T17:02:34.242Z,50.58
2018-03-08T17:05:01.881Z,50.56
2018-03-08T17:07:29.408Z,50.73
2018-03-08T17:09:56.896Z,50.80
2018-03-08T17:12:24.342Z,51.10
2018-03-08T17:14:51.820Z,51.41
2018-03-08T17:17:19.281Z,51.48
2018-03-08T17:19:46.852Z,51.70
2018-03-08T17:22:14.297Z,51.98
2018-03-08T17:24:41.770Z,52.26
2018-03-08T17:27:09.216Z,52.43
2018-03-08T17:29:36.674Z,52.74
2018-03-08T17:32:04.170Z,53.07
2018-03-08T17:34:31.642Z,53.34
2018-03-08T17:36:59.082Z,53.67
2018-03-08T17:39:26.554Z,53.99
2018-03-08T17:41:54.008Z,54.13
2018-03-08T17:44:21.484Z,54.23
2018-03-08T17:46:48.974Z,54.37
2018-03-08T17:49:16.425Z,54.36
2018-03-08T17:51:43.910Z,54.39
2018-03-08T17:54:11.337Z,54.39
2018-03-08T17:56:38.860Z,54.32
2018-03-08T17:59:06.322Z,54.28
2018-03-08T18:01:33.765Z,54.22
2018-03-08T18:04:01.257Z,54.27
2018-03-08T18:06:28.724Z,54.27
2018-03-08T18:08:56.269Z,54.15
2018-03-08T18:11:23.727Z,54.00
2018-03-08T18:13:51.219Z,54.12
2018-03-08T18:16:18.681Z,53.89
2018-03-08T18:18:46.191Z,53.83
2018-03-08T18:21:13.641Z,53.75
2018-03-08T18:23:41.211Z,53.65
2018-03-08T18:26:08.677Z,53.48
2018-03-08T18:28:36.213Z,53.46
2018-03-08T18:31:03.651Z,53.43
2018-03-08T18:33:31.172Z,53.22
2018-03-08T18:35:58.726Z,53.01
2018-03-08T18:38:26.167Z,52.94
2018-03-08T18:40:53.711Z,53.05
2018-03-08T18:43:21.173Z,53.09
2018-03-08T18:45:48.635Z,53.23
2018-03-08T18:48:16.099Z,53.19
2018-03-08T18:50:43.573Z,53.26
2018-03-08T18:53:11.070Z,53.35
2018-03-08T18:55:38.511Z,53.41
2018-03-08T19:01:00.757Z,53.48
2018-03-08T19:03:28.245Z,53.32
2018-03-08T19:05:55.743Z,53.29
2018-03-08T19:08:23.367Z,53.36
2018-03-08T19:10:50.855Z,53.53
2018-03-08T19:13:18.318Z,53.48
2018-03-08T19:15:45.880Z,53.54
2018-03-08T19:18:13.399Z,53.73
2018-03-08T19:20:40.874Z,53.80
2018-03-08T19:23:08.411Z,54.12
2018-03-08T19:25:35.870Z,54.25
2018-03-08T19:28:03.397Z,54.10
2018-03-08T19:30:30.859Z,53.90
2018-03-08T19:32:58.314Z,53.90
2018-03-08T19:35:25.875Z,53.88
2018-03-08T19:37:53.392Z,53.68
2018-03-08T19:40:20.871Z,53.67
2018-03-08T19:42:48.343Z,53.45
2018-03-08T19:45:15.875Z,53.41
2018-03-08T19:47:43.412Z,53.36
2018-03-08T19:50:10.903Z,53.18
2018-03-08T19:52:38.373Z,53.08
2018-03-08T19:55:05.837Z,52.92
2018-03-08T19:57:33.353Z,52.90
2018-03-08T20:00:00.895Z,52.55
2018-03-08T20:02:28.371Z,52.26
2018-03-08T20:04:55.834Z,52.55
2018-03-08T20:07:23.348Z,52.69
2018-03-08T20:09:50.896Z,52.89
2018-03-08T20:12:18.685Z,53.10
2018-03-08T20:14:46.161Z,53.41
2018-03-08T20:17:13.656Z,53.62
2018-03-08T20:19:41.154Z,53.93
2018-03-08T20:22:08.625Z,53.93
2018-03-08T20:24:36.135Z,54.58
2018-03-08T20:27:03.583Z,55.74
2018-03-08T20:29:31.109Z,56.19
2018-03-08T20:31:58.590Z,56.05
2018-03-08T20:34:26.111Z,56.42
2018-03-08T20:36:53.574Z,56.82
2018-03-08T20:39:21.033Z,56.76
2018-03-08T20:41:48.519Z,56.73
2018-03-08T20:44:15.984Z,56.27
2018-03-08T20:46:43.694Z,56.37
2018-03-08T20:49:11.154Z,56.20
2018-03-08T20:51:38.577Z,56.08
2018-03-08T20:54:06.079Z,56.11
2018-03-08T20:56:33.664Z,55.79
2018-03-08T20:59:01.126Z,55.64
2018-03-08T21:01:28.591Z,55.74
2018-03-08T21:03:56.065Z,55.72
2018-03-08T21:06:23.564Z,55.57
2018-03-08T21:08:51.059Z,55.38
2018-03-08T21:11:18.532Z,54.99
2018-03-08T21:13:46.094Z,54.55
2018-03-08T21:16:13.509Z,54.15
2018-03-08T21:18:42.277Z,53.82
2018-03-08T21:21:09.743Z,53.58
2018-03-08T21:23:37.177Z,52.93
2018-03-08T21:26:04.619Z,52.76
2018-03-08T21:28:32.112Z,52.62
2018-03-08T21:30:59.624Z,52.77
2018-03-08T21:33:27.126Z,52.61
2018-03-08T21:35:54.564Z,52.71
2018-03-08T21:38:22.082Z,53.07
2018-03-08T21:40:49.541Z,53.24
2018-03-08T21:43:17.091Z,54.07
2018-03-08T21:45:44.548Z,55.82
2018-03-08T21:48:12.063Z,58.05
2018-03-08T21:50:39.518Z,59.94
2018-03-08T21:53:07.019Z,62.94
2018-03-08T21:55:34.471Z,65.46
2018-03-08T21:58:02.006Z,66.98
2018-03-08T22:00:29.692Z,68.06
2018-03-08T22:02:57.159Z,68.69
2018-03-08T22:05:24.609Z,69.29
2018-03-08T22:07:52.077Z,69.75
2018-03-08T22:10:19.532Z,70.17
2018-03-08T22:12:47.001Z,70.59
2018-03-08T22:15:14.493Z,71.30
2018-03-08T22:17:41.934Z,71.54
2018-03-08T22:20:09.406Z,71.20
2018-03-08T22:22:36.847Z,72.11
2018-03-08T22:25:04.321Z,71.58
2018-03-08T22:27:31.767Z,70.49
2018-03-08T22:29:59.215Z,69.67
2018-03-08T22:32:26.672Z,68.56
2018-03-08T22:34:54.174Z,68.27
2018-03-08T22:37:21.623Z,67.72
2018-03-08T22:39:49.089Z,67.77
2018-03-08T22:42:16.530Z,67.02
2018-03-08T22:44:43.979Z,66.65
2018-03-08T22:47:11.599Z,67.37
2018-03-08T22:49:39.354Z,67.92
2018-03-08T22:52:06.834Z,68.49
2018-03-08T22:54:34.317Z,68.92
2018-03-08T22:57:01.809Z,68.98
2018-03-08T22:59:29.232Z,69.14
2018-03-08T23:02:12.270Z,69.33
2018-03-08T23:04:39.974Z,69.50
2018-03-08T23:07:07.429Z,69.52
2018-03-08T23:09:34.860Z,69.37
2018-03-08T23:12:02.360Z,69.19
2018-03-08T23:14:29.839Z,68.93
2018-03-08T23:16:57.419Z,68.82
2018-03-08T23:19:24.829Z,68.78
2018-03-08T23:21:52.333Z,68.74
2018-03-08T23:24:19.785Z,68.69
2018-03-08T23:26:47.227Z,68.72
2018-03-08T23:29:14.682Z,68.66
2018-03-08T23:31:42.168Z,68.62
2018-03-08T23:34:09.631Z,68.39
2018-03-08T23:36:37.089Z,68.18
2018-03-08T23:39:04.516Z,68.33
2018-03-08T23:41:32.002Z,69.75
2018-03-08T23:43:59.499Z,68.80
2018-03-08T23:46:26.962Z,67.62
2018-03-08T23:48:54.412Z,67.63
2018-03-08T23:51:21.873Z,68.00
2018-03-08T23:53:49.326Z,67.91
2018-03-08T23:56:16.843Z,67.91
2018-03-08T23:58:44.337Z,67.87
